sensor_id;sensor_type;location;lat;lon;timestamp;temperature;humidity
16064;DHT22;8136;53.172;8.256;2022-08-11T00:01:52;19.50;99.90
16064;DHT22;8136;53.172;8.256;2022-08-11T00:04:21;19.40;99.90
16064;DHT22;8136;53.172;8.256;2022-08-11T00:06:49;19.30;99.90
16064;DHT22;8136;53.172;8.256;2022-08-11T00:09:19;19.30;99.90
16064;DHT22;8136;53.172;8.256;2022-08-11T00:11:49;19.30;99.90
16064;DHT22;8136;53.172;8.256;2022-08-11T00:14:19;19.30;99.90
16064;DHT22;8136;53.172;8.256;2022-08-11T00:16:56;19.30;99.90
16064;DHT22;8136;53.172;8.256;2022-08-11T00:19:25;19.20;99.90
16064;DHT22;8136;53.172;8.256;2022-08-11T00:21:53;19.20;99.90
16064;DHT22;8136;53.172;8.256;2022-08-11T00:24:21;19.20;99.90
16064;DHT22;8136;53.172;8.256;2022-08-11T00:26:50;19.20;99.90
16064;DHT22;8136;53.172;8.256;2022-08-11T00:29:18;19.10;99.90
16064;DHT22;8136;53.172;8.256;2022-08-11T00:31:47;19.10;99.90
16064;DHT22;8136;53.172;8.256;2022-08-11T00:37:38;19.10;99.90
16064;DHT22;8136;53.172;8.256;2022-08-11T00:40:14;19.00;99.90
16064;DHT22;8136;53.172;8.256;2022-08-11T00:42:47;19.00;99.90
16064;DHT22;8136;53.172;8.256;2022-08-11T00:45:22;19.00;99.90
16064;DHT22;8136;53.172;8.256;2022-08-11T00:48:00;19.00;99.90
16064;DHT22;8136;53.172;8.256;2022-08-11T00:50:38;18.90;99.90
16064;DHT22;8136;53.172;8.256;2022-08-11T00:53:23;18.90;99.90
16064;DHT22;8136;53.172;8.256;2022-08-11T00:56:41;18.80;99.90
16064;DHT22;8136;53.172;8.256;2022-08-11T01:02:17;18.80;99.90
16064;DHT22;8136;53.172;8.256;2022-08-11T01:21:13;18.50;99.90
16064;DHT22;8136;53.172;8.256;2022-08-11T01:24:12;18.50;99.90
16064;DHT22;8136;53.172;8.256;2022-08-11T01:39:23;18.30;99.90
16064;DHT22;8136;53.172;8.256;2022-08-11T01:45:33;18.30;99.90
16064;DHT22;8136;53.172;8.256;2022-08-11T01:48:07;18.30;99.90
16064;DHT22;8136;53.172;8.256;2022-08-11T01:50:53;18.30;99.90
16064;DHT22;8136;53.172;8.256;2022-08-11T01:53:33;18.20;99.90
16064;DHT22;8136;53.172;8.256;2022-08-11T01:56:12;18.20;99.90
16064;DHT22;8136;53.172;8.256;2022-08-11T01:58:47;18.20;99.90
16064;DHT22;8136;53.172;8.256;2022-08-11T02:01:27;18.10;99.90
16064;DHT22;8136;53.172;8.256;2022-08-11T02:04:06;18.20;99.90
16064;DHT22;8136;53.172;8.256;2022-08-11T02:06:39;18.10;99.90
16064;DHT22;8136;53.172;8.256;2022-08-11T02:09:42;18.00;99.90
16064;DHT22;8136;53.172;8.256;2022-08-11T02:12:14;18.00;99.90
16064;DHT22;8136;53.172;8.256;2022-08-11T02:14:48;18.00;99.90
16064;DHT22;8136;53.172;8.256;2022-08-11T02:17:34;17.90;99.90
16064;DHT22;8136;53.172;8.256;2022-08-11T02:20:21;17.90;99.90
16064;DHT22;8136;53.172;8.256;2022-08-11T02:23:22;17.80;99.90
16064;DHT22;8136;53.172;8.256;2022-08-11T02:26:16;17.80;99.90
16064;DHT22;8136;53.172;8.256;2022-08-11T02:28:54;17.80;99.90
16064;DHT22;8136;53.172;8.256;2022-08-11T02:31:37;17.80;99.90
16064;DHT22;8136;53.172;8.256;2022-08-11T02:34:33;17.80;99.90
16064;DHT22;8136;53.172;8.256;2022-08-11T02:37:13;17.70;99.90
16064;DHT22;8136;53.172;8.256;2022-08-11T02:39:54;17.70;99.90
16064;DHT22;8136;53.172;8.256;2022-08-11T02:42:30;17.70;99.90
16064;DHT22;8136;53.172;8.256;2022-08-11T02:45:15;17.70;99.90
16064;DHT22;8136;53.172;8.256;2022-08-11T02:47:50;17.70;99.90
16064;DHT22;8136;53.172;8.256;2022-08-11T02:50:37;17.60;99.90
16064;DHT22;8136;53.172;8.256;2022-08-11T02:53:11;17.60;99.90
16064;DHT22;8136;53.172;8.256;2022-08-11T02:55:51;17.60;99.90
16064;DHT22;8136;53.172;8.256;2022-08-11T02:58:32;17.60;99.90
16064;DHT22;8136;53.172;8.256;2022-08-11T03:01:07;17.60;99.90
16064;DHT22;8136;53.172;8.256;2022-08-11T03:03:46;17.60;99.90
16064;DHT22;8136;53.172;8.256;2022-08-11T03:06:23;17.60;99.90
16064;DHT22;8136;53.172;8.256;2022-08-11T03:08:55;17.50;99.90
16064;DHT22;8136;53.172;8.256;2022-08-11T03:11:38;17.50;99.90
16064;DHT22;8136;53.172;8.256;2022-08-11T03:14:30;17.50;99.90
16064;DHT22;8136;53.172;8.256;2022-08-11T03:17:24;17.50;99.90
16064;DHT22;8136;53.172;8.256;2022-08-11T03:20:20;17.50;99.90
16064;DHT22;8136;53.172;8.256;2022-08-11T03:22:58;17.40;99.90
16064;DHT22;8136;53.172;8.256;2022-08-11T03:25:30;17.40;99.90
16064;DHT22;8136;53.172;8.256;2022-08-11T03:28:03;17.40;99.90
16064;DHT22;8136;53.172;8.256;2022-08-11T03:30:44;17.40;99.90
16064;DHT22;8136;53.172;8.256;2022-08-11T03:33:18;17.30;99.90
16064;DHT22;8136;53.172;8.256;2022-08-11T03:36:19;17.30;99.90
16064;DHT22;8136;53.172;8.256;2022-08-11T03:38:58;17.20;99.90
16064;DHT22;8136;53.172;8.256;2022-08-11T03:41:31;17.30;99.90
16064;DHT22;8136;53.172;8.256;2022-08-11T03:44:22;17.30;99.90
16064;DHT22;8136;53.172;8.256;2022-08-11T03:47:02;17.20;99.90
16064;DHT22;8136;53.172;8.256;2022-08-11T03:49:38;17.20;99.90
16064;DHT22;8136;53.172;8.256;2022-08-11T03:52:16;17.20;99.90
16064;DHT22;8136;53.172;8.256;2022-08-11T03:55:09;17.20;99.90
16064;DHT22;8136;53.172;8.256;2022-08-11T03:58:16;17.20;99.90
16064;DHT22;8136;53.172;8.256;2022-08-11T04:07:29;17.10;99.90
16064;DHT22;8136;53.172;8.256;2022-08-11T04:16:46;17.10;99.90
16064;DHT22;8136;53.172;8.256;2022-08-11T04:19:38;17.10;99.90
16064;DHT22;8136;53.172;8.256;2022-08-11T04:25:28;17.10;99.90
16064;DHT22;8136;53.172;8.256;2022-08-11T04:28:25;17.10;99.90
16064;DHT22;8136;53.172;8.256;2022-08-11T04:31:29;17.10;99.90
16064;DHT22;8136;53.172;8.256;2022-08-11T04:34:11;17.10;99.90
16064;DHT22;8136;53.172;8.256;2022-08-11T04:37:09;17.10;99.90
16064;DHT22;8136;53.172;8.256;2022-08-11T04:43:38;17.10;99.90
16064;DHT22;8136;53.172;8.256;2022-08-11T04:46:27;17.10;99.90
16064;DHT22;8136;53.172;8.256;2022-08-11T04:49:12;17.00;99.90
16064;DHT22;8136;53.172;8.256;2022-08-11T04:52:15;16.90;99.90
16064;DHT22;8136;53.172;8.256;2022-08-11T04:55:19;17.00;99.90
16064;DHT22;8136;53.172;8.256;2022-08-11T04:58:16;16.90;99.90
16064;DHT22;8136;53.172;8.256;2022-08-11T05:01:19;16.90;99.90
16064;DHT22;8136;53.172;8.256;2022-08-11T05:04:20;16.90;99.90
16064;DHT22;8136;53.172;8.256;2022-08-11T05:07:20;16.90;99.90
16064;DHT22;8136;53.172;8.256;2022-08-11T05:10:06;16.90;99.90
16064;DHT22;8136;53.172;8.256;2022-08-11T05:12:40;16.90;99.90
16064;DHT22;8136;53.172;8.256;2022-08-11T05:15:11;16.90;99.90
16064;DHT22;8136;53.172;8.256;2022-08-11T05:18:01;17.00;99.90
16064;DHT22;8136;53.172;8.256;2022-08-11T05:20:52;17.00;99.90
16064;DHT22;8136;53.172;8.256;2022-08-11T05:23:40;17.10;99.90
16064;DHT22;8136;53.172;8.256;2022-08-11T05:26:27;17.10;99.90
16064;DHT22;8136;53.172;8.256;2022-08-11T05:29:35;17.20;99.90
16064;DHT22;8136;53.172;8.256;2022-08-11T05:32:22;17.30;99.90
16064;DHT22;8136;53.172;8.256;2022-08-11T05:35:08;17.30;99.90
16064;DHT22;8136;53.172;8.256;2022-08-11T05:37:42;17.40;99.90
16064;DHT22;8136;53.172;8.256;2022-08-11T05:40:28;17.50;99.90
16064;DHT22;8136;53.172;8.256;2022-08-11T05:43:14;17.50;99.90
16064;DHT22;8136;53.172;8.256;2022-08-11T05:46:00;17.60;99.90
16064;DHT22;8136;53.172;8.256;2022-08-11T05:48:45;17.70;99.90
16064;DHT22;8136;53.172;8.256;2022-08-11T05:51:36;17.70;99.90
16064;DHT22;8136;53.172;8.256;2022-08-11T05:54:22;17.80;99.90
16064;DHT22;8136;53.172;8.256;2022-08-11T06:00:18;18.00;99.90
16064;DHT22;8136;53.172;8.256;2022-08-11T06:02:48;18.10;99.90
16064;DHT22;8136;53.172;8.256;2022-08-11T06:05:20;18.20;99.90
16064;DHT22;8136;53.172;8.256;2022-08-11T06:07:49;18.30;99.90
16064;DHT22;8136;53.172;8.256;2022-08-11T06:10:28;18.40;99.90
16064;DHT22;8136;53.172;8.256;2022-08-11T06:12:58;18.50;99.90
16064;DHT22;8136;53.172;8.256;2022-08-11T06:15:27;18.50;99.90
16064;DHT22;8136;53.172;8.256;2022-08-11T06:17:54;18.60;99.90
16064;DHT22;8136;53.172;8.256;2022-08-11T06:20:23;18.70;99.90
16064;DHT22;8136;53.172;8.256;2022-08-11T06:22:57;18.80;99.90
16064;DHT22;8136;53.172;8.256;2022-08-11T06:25:29;18.90;99.90
16064;DHT22;8136;53.172;8.256;2022-08-11T06:27:57;19.00;99.90
16064;DHT22;8136;53.172;8.256;2022-08-11T06:30:33;19.10;99.90
16064;DHT22;8136;53.172;8.256;2022-08-11T06:33:02;19.20;99.90
16064;DHT22;8136;53.172;8.256;2022-08-11T06:35:37;19.30;99.90
16064;DHT22;8136;53.172;8.256;2022-08-11T06:38:18;19.30;99.90
16064;DHT22;8136;53.172;8.256;2022-08-11T06:40:52;19.40;99.90
16064;DHT22;8136;53.172;8.256;2022-08-11T06:43:45;19.50;99.90
16064;DHT22;8136;53.172;8.256;2022-08-11T06:46:15;19.60;99.90
16064;DHT22;8136;53.172;8.256;2022-08-11T06:48:44;19.70;99.90
16064;DHT22;8136;53.172;8.256;2022-08-11T06:51:11;19.80;99.90
16064;DHT22;8136;53.172;8.256;2022-08-11T06:53:43;19.90;99.90
16064;DHT22;8136;53.172;8.256;2022-08-11T06:56:11;19.90;99.90
16064;DHT22;8136;53.172;8.256;2022-08-11T06:58:58;20.00;99.90
16064;DHT22;8136;53.172;8.256;2022-08-11T07:01:50;20.10;99.90
16064;DHT22;8136;53.172;8.256;2022-08-11T07:04:41;20.30;99.90
16064;DHT22;8136;53.172;8.256;2022-08-11T07:10:41;20.60;99.90
16064;DHT22;8136;53.172;8.256;2022-08-11T07:16:51;20.80;99.90
16064;DHT22;8136;53.172;8.256;2022-08-11T07:19:23;21.00;99.90
16064;DHT22;8136;53.172;8.256;2022-08-11T07:22:09;21.00;99.90
16064;DHT22;8136;53.172;8.256;2022-08-11T07:24:58;21.10;99.90
16064;DHT22;8136;53.172;8.256;2022-08-11T07:28:01;21.20;99.90
16064;DHT22;8136;53.172;8.256;2022-08-11T07:30:46;21.40;99.90
16064;DHT22;8136;53.172;8.256;2022-08-11T07:43:27;21.80;99.90
16064;DHT22;8136;53.172;8.256;2022-08-11T07:45:54;21.90;99.90
16064;DHT22;8136;53.172;8.256;2022-08-11T07:48:40;22.10;99.90
16064;DHT22;8136;53.172;8.256;2022-08-11T07:51:26;22.10;99.90
16064;DHT22;8136;53.172;8.256;2022-08-11T07:54:11;22.30;99.90
16064;DHT22;8136;53.172;8.256;2022-08-11T07:56:39;22.40;99.90
16064;DHT22;8136;53.172;8.256;2022-08-11T07:59:08;22.60;99.90
16064;DHT22;8136;53.172;8.256;2022-08-11T08:01:53;22.70;99.90
16064;DHT22;8136;53.172;8.256;2022-08-11T08:14:45;23.20;99.90
16064;DHT22;8136;53.172;8.256;2022-08-11T08:17:30;23.30;99.90
16064;DHT22;8136;53.172;8.256;2022-08-11T08:23:38;23.50;99.90
16064;DHT22;8136;53.172;8.256;2022-08-11T08:26:06;23.60;99.90
16064;DHT22;8136;53.172;8.256;2022-08-11T08:28:55;23.70;99.90
16064;DHT22;8136;53.172;8.256;2022-08-11T08:31:45;23.80;99.90
16064;DHT22;8136;53.172;8.256;2022-08-11T08:34:12;23.90;99.90
16064;DHT22;8136;53.172;8.256;2022-08-11T08:36:41;24.00;99.90
16064;DHT22;8136;53.172;8.256;2022-08-11T08:39:11;24.20;99.90
16064;DHT22;8136;53.172;8.256;2022-08-11T08:41:39;24.30;99.90
16064;DHT22;8136;53.172;8.256;2022-08-11T08:44:09;24.30;99.90
16064;DHT22;8136;53.172;8.256;2022-08-11T08:46:41;24.40;99.90
16064;DHT22;8136;53.172;8.256;2022-08-11T08:49:18;24.50;99.90
16064;DHT22;8136;53.172;8.256;2022-08-11T08:51:51;24.60;99.90
16064;DHT22;8136;53.172;8.256;2022-08-11T08:54:21;24.60;99.90
16064;DHT22;8136;53.172;8.256;2022-08-11T08:56:51;24.70;99.90
16064;DHT22;8136;53.172;8.256;2022-08-11T08:59:22;24.80;99.90
16064;DHT22;8136;53.172;8.256;2022-08-11T09:01:54;25.00;99.90
16064;DHT22;8136;53.172;8.256;2022-08-11T09:04:23;25.10;99.90
16064;DHT22;8136;53.172;8.256;2022-08-11T09:06:50;25.20;99.90
16064;DHT22;8136;53.172;8.256;2022-08-11T09:09:19;25.30;99.90
16064;DHT22;8136;53.172;8.256;2022-08-11T09:11:47;25.40;99.90
16064;DHT22;8136;53.172;8.256;2022-08-11T09:14:20;25.50;99.90
16064;DHT22;8136;53.172;8.256;2022-08-11T09:16:48;25.60;99.90
16064;DHT22;8136;53.172;8.256;2022-08-11T09:19:17;25.70;99.90
16064;DHT22;8136;53.172;8.256;2022-08-11T09:21:49;25.80;99.90
16064;DHT22;8136;53.172;8.256;2022-08-11T09:24:38;25.90;99.90
16064;DHT22;8136;53.172;8.256;2022-08-11T09:27:24;26.00;99.90
16064;DHT22;8136;53.172;8.256;2022-08-11T09:29:52;26.10;99.90
16064;DHT22;8136;53.172;8.256;2022-08-11T09:32:20;26.20;99.90
16064;DHT22;8136;53.172;8.256;2022-08-11T09:34:49;26.20;99.90
16064;DHT22;8136;53.172;8.256;2022-08-11T09:37:20;26.30;99.90
16064;DHT22;8136;53.172;8.256;2022-08-11T09:40:07;26.50;99.90
16064;DHT22;8136;53.172;8.256;2022-08-11T09:42:52;26.60;99.90
16064;DHT22;8136;53.172;8.256;2022-08-11T09:45:37;26.70;99.90
16064;DHT22;8136;53.172;8.256;2022-08-11T09:48:05;26.80;99.90
16064;DHT22;8136;53.172;8.256;2022-08-11T09:50:32;26.90;99.90
16064;DHT22;8136;53.172;8.256;2022-08-11T09:53:01;26.90;99.90
16064;DHT22;8136;53.172;8.256;2022-08-11T09:55:30;27.10;99.00
16064;DHT22;8136;53.172;8.256;2022-08-11T09:57:57;27.10;98.50
16064;DHT22;8136;53.172;8.256;2022-08-11T10:00:47;27.30;97.80
16064;DHT22;8136;53.172;8.256;2022-08-11T10:03:16;27.30;97.50
16064;DHT22;8136;53.172;8.256;2022-08-11T10:05:45;27.40;97.00
16064;DHT22;8136;53.172;8.256;2022-08-11T10:08:32;27.50;95.60
16064;DHT22;8136;53.172;8.256;2022-08-11T10:10:59;27.50;96.10
16064;DHT22;8136;53.172;8.256;2022-08-11T10:13:30;27.60;96.50
16064;DHT22;8136;53.172;8.256;2022-08-11T10:16:23;27.70;95.80
16064;DHT22;8136;53.172;8.256;2022-08-11T10:18:51;27.80;95.70
16064;DHT22;8136;53.172;8.256;2022-08-11T10:21:29;27.90;95.40
16064;DHT22;8136;53.172;8.256;2022-08-11T10:24:02;27.90;95.70
16064;DHT22;8136;53.172;8.256;2022-08-11T10:26:48;28.00;96.30
16064;DHT22;8136;53.172;8.256;2022-08-11T10:29:20;28.10;94.80
16064;DHT22;8136;53.172;8.256;2022-08-11T10:32:07;28.20;94.80
16064;DHT22;8136;53.172;8.256;2022-08-11T10:34:53;28.20;95.80
16064;DHT22;8136;53.172;8.256;2022-08-11T10:37:22;28.30;94.90
16064;DHT22;8136;53.172;8.256;2022-08-11T10:39:52;28.40;94.20
16064;DHT22;8136;53.172;8.256;2022-08-11T10:42:21;28.40;94.30
16064;DHT22;8136;53.172;8.256;2022-08-11T10:45:07;28.50;93.90
16064;DHT22;8136;53.172;8.256;2022-08-11T10:47:55;28.50;93.90
16064;DHT22;8136;53.172;8.256;2022-08-11T10:50:22;28.70;94.70
16064;DHT22;8136;53.172;8.256;2022-08-11T10:53:08;28.70;94.20
16064;DHT22;8136;53.172;8.256;2022-08-11T10:55:56;28.90;94.30
16064;DHT22;8136;53.172;8.256;2022-08-11T10:58:42;29.00;93.20
16064;DHT22;8136;53.172;8.256;2022-08-11T11:01:14;29.00;93.30
16064;DHT22;8136;53.172;8.256;2022-08-11T11:03:42;29.10;92.10
16064;DHT22;8136;53.172;8.256;2022-08-11T11:06:18;29.20;93.60
16064;DHT22;8136;53.172;8.256;2022-08-11T11:08:52;29.20;92.50
16064;DHT22;8136;53.172;8.256;2022-08-11T11:11:24;29.30;92.30
16064;DHT22;8136;53.172;8.256;2022-08-11T11:14:18;29.40;92.30
16064;DHT22;8136;53.172;8.256;2022-08-11T11:17:04;29.40;92.30
16064;DHT22;8136;53.172;8.256;2022-08-11T11:19:53;29.50;91.10
16064;DHT22;8136;53.172;8.256;2022-08-11T11:22:24;29.50;91.00
16064;DHT22;8136;53.172;8.256;2022-08-11T11:25:19;29.50;91.30
16064;DHT22;8136;53.172;8.256;2022-08-11T11:27:56;29.60;90.30
16064;DHT22;8136;53.172;8.256;2022-08-11T11:30:34;29.70;90.30
16064;DHT22;8136;53.172;8.256;2022-08-11T11:33:09;29.70;90.60
16064;DHT22;8136;53.172;8.256;2022-08-11T11:35:43;29.70;90.20
16064;DHT22;8136;53.172;8.256;2022-08-11T11:38:13;29.80;90.90
16064;DHT22;8136;53.172;8.256;2022-08-11T11:44:04;30.10;90.20
16064;DHT22;8136;53.172;8.256;2022-08-11T11:46:31;30.20;87.30
16064;DHT22;8136;53.172;8.256;2022-08-11T11:49:00;30.30;87.90
16064;DHT22;8136;53.172;8.256;2022-08-11T11:51:32;30.40;87.20
16064;DHT22;8136;53.172;8.256;2022-08-11T11:53:59;30.40;88.70
16064;DHT22;8136;53.172;8.256;2022-08-11T11:56:27;30.40;89.70
16064;DHT22;8136;53.172;8.256;2022-08-11T11:58:55;30.50;89.40
16064;DHT22;8136;53.172;8.256;2022-08-11T12:01:42;30.60;87.00
16064;DHT22;8136;53.172;8.256;2022-08-11T12:04:10;30.60;87.60
16064;DHT22;8136;53.172;8.256;2022-08-11T12:06:39;30.70;87.70
16064;DHT22;8136;53.172;8.256;2022-08-11T12:09:07;30.70;90.20
16064;DHT22;8136;53.172;8.256;2022-08-11T12:11:39;30.80;86.80
16064;DHT22;8136;53.172;8.256;2022-08-11T12:14:23;30.90;88.20
16064;DHT22;8136;53.172;8.256;2022-08-11T12:16:55;30.90;86.60
16064;DHT22;8136;53.172;8.256;2022-08-11T12:19:24;31.00;90.10
16064;DHT22;8136;53.172;8.256;2022-08-11T12:21:54;31.10;87.10
16064;DHT22;8136;53.172;8.256;2022-08-11T12:24:40;31.20;87.40
16064;DHT22;8136;53.172;8.256;2022-08-11T12:27:25;31.20;87.90
16064;DHT22;8136;53.172;8.256;2022-08-11T12:29:55;31.40;86.80
16064;DHT22;8136;53.172;8.256;2022-08-11T12:32:26;31.40;87.50
16064;DHT22;8136;53.172;8.256;2022-08-11T12:34:54;31.60;86.60
16064;DHT22;8136;53.172;8.256;2022-08-11T12:37:25;31.70;86.00
16064;DHT22;8136;53.172;8.256;2022-08-11T12:39:59;31.70;86.10
16064;DHT22;8136;53.172;8.256;2022-08-11T12:42:44;31.70;85.20
16064;DHT22;8136;53.172;8.256;2022-08-11T12:45:29;31.80;86.50
16064;DHT22;8136;53.172;8.256;2022-08-11T12:48:06;31.80;86.20
16064;DHT22;8136;53.172;8.256;2022-08-11T12:50:55;31.90;84.80
16064;DHT22;8136;53.172;8.256;2022-08-11T12:53:58;32.00;87.40
16064;DHT22;8136;53.172;8.256;2022-08-11T12:56:29;32.20;87.90
16064;DHT22;8136;53.172;8.256;2022-08-11T12:59:15;32.30;86.80
16064;DHT22;8136;53.172;8.256;2022-08-11T13:02:00;32.50;85.10
16064;DHT22;8136;53.172;8.256;2022-08-11T13:04:46;32.50;85.10
16064;DHT22;8136;53.172;8.256;2022-08-11T13:07:18;32.70;85.60
16064;DHT22;8136;53.172;8.256;2022-08-11T13:09:46;32.90;84.30
16064;DHT22;8136;53.172;8.256;2022-08-11T13:12:13;33.00;84.50
16064;DHT22;8136;53.172;8.256;2022-08-11T13:14:59;33.00;86.00
16064;DHT22;8136;53.172;8.256;2022-08-11T13:17:28;33.10;83.80
16064;DHT22;8136;53.172;8.256;2022-08-11T13:19:58;33.20;82.40
16064;DHT22;8136;53.172;8.256;2022-08-11T13:22:25;33.30;81.20
16064;DHT22;8136;53.172;8.256;2022-08-11T13:24:53;33.60;83.20
16064;DHT22;8136;53.172;8.256;2022-08-11T13:27:21;34.20;80.40
16064;DHT22;8136;53.172;8.256;2022-08-11T13:29:49;34.90;76.80
16064;DHT22;8136;53.172;8.256;2022-08-11T13:32:38;35.40;76.90
16064;DHT22;8136;53.172;8.256;2022-08-11T13:35:07;36.10;75.00
16064;DHT22;8136;53.172;8.256;2022-08-11T13:37:35;36.70;75.10
16064;DHT22;8136;53.172;8.256;2022-08-11T13:40:02;37.50;76.00
16064;DHT22;8136;53.172;8.256;2022-08-11T13:42:29;38.10;74.20
16064;DHT22;8136;53.172;8.256;2022-08-11T13:44:57;38.80;71.40
16064;DHT22;8136;53.172;8.256;2022-08-11T13:47:24;39.30;70.10
16064;DHT22;8136;53.172;8.256;2022-08-11T13:49:52;39.70;70.20
16064;DHT22;8136;53.172;8.256;2022-08-11T13:52:21;40.20;69.10
16064;DHT22;8136;53.172;8.256;2022-08-11T13:54:48;40.50;70.40
16064;DHT22;8136;53.172;8.256;2022-08-11T13:57:18;40.80;68.10
16064;DHT22;8136;53.172;8.256;2022-08-11T13:59:46;41.20;66.20
16064;DHT22;8136;53.172;8.256;2022-08-11T14:02:21;41.40;65.20
16064;DHT22;8136;53.172;8.256;2022-08-11T14:04:53;41.70;63.10
16064;DHT22;8136;53.172;8.256;2022-08-11T14:07:23;42.10;63.40
16064;DHT22;8136;53.172;8.256;2022-08-11T14:09:54;42.50;62.60
16064;DHT22;8136;53.172;8.256;2022-08-11T14:12:24;42.90;63.30
16064;DHT22;8136;53.172;8.256;2022-08-11T14:15:15;43.10;60.30
16064;DHT22;8136;53.172;8.256;2022-08-11T14:17:46;43.40;58.80
16064;DHT22;8136;53.172;8.256;2022-08-11T14:20:16;43.60;58.00
16064;DHT22;8136;53.172;8.256;2022-08-11T14:22:46;43.70;58.70
16064;DHT22;8136;53.172;8.256;2022-08-11T14:25:13;44.10;56.90
16064;DHT22;8136;53.172;8.256;2022-08-11T14:27:42;44.30;56.60
16064;DHT22;8136;53.172;8.256;2022-08-11T14:30:11;44.40;56.10
16064;DHT22;8136;53.172;8.256;2022-08-11T14:32:59;44.90;57.50
16064;DHT22;8136;53.172;8.256;2022-08-11T14:35:27;45.40;55.20
16064;DHT22;8136;53.172;8.256;2022-08-11T14:37:57;45.60;54.70
16064;DHT22;8136;53.172;8.256;2022-08-11T14:40:24;45.50;53.60
16064;DHT22;8136;53.172;8.256;2022-08-11T14:43:20;45.90;53.60
16064;DHT22;8136;53.172;8.256;2022-08-11T14:46:05;46.20;54.30
16064;DHT22;8136;53.172;8.256;2022-08-11T14:48:52;46.20;56.00
16064;DHT22;8136;53.172;8.256;2022-08-11T14:51:21;46.30;56.60
16064;DHT22;8136;53.172;8.256;2022-08-11T14:53:49;46.60;56.60
16064;DHT22;8136;53.172;8.256;2022-08-11T14:56:36;46.50;55.90
16064;DHT22;8136;53.172;8.256;2022-08-11T14:59:03;46.30;57.30
16064;DHT22;8136;53.172;8.256;2022-08-11T15:01:30;46.40;57.50
16064;DHT22;8136;53.172;8.256;2022-08-11T15:04:14;46.60;56.90
16064;DHT22;8136;53.172;8.256;2022-08-11T15:06:41;46.70;56.90
16064;DHT22;8136;53.172;8.256;2022-08-11T15:09:09;46.80;56.70
16064;DHT22;8136;53.172;8.256;2022-08-11T15:11:36;47.10;56.90
16064;DHT22;8136;53.172;8.256;2022-08-11T15:14:21;46.90;56.10
16064;DHT22;8136;53.172;8.256;2022-08-11T15:17:04;46.80;55.10
16064;DHT22;8136;53.172;8.256;2022-08-11T15:19:36;46.80;55.80
16064;DHT22;8136;53.172;8.256;2022-08-11T15:22:24;47.20;54.90
16064;DHT22;8136;53.172;8.256;2022-08-11T15:25:10;47.20;54.50
16064;DHT22;8136;53.172;8.256;2022-08-11T15:27:38;47.20;55.10
16064;DHT22;8136;53.172;8.256;2022-08-11T15:30:35;47.30;54.60
16064;DHT22;8136;53.172;8.256;2022-08-11T15:33:21;47.40;54.50
16064;DHT22;8136;53.172;8.256;2022-08-11T15:36:08;47.70;54.80
16064;DHT22;8136;53.172;8.256;2022-08-11T15:38:57;47.90;53.90
16064;DHT22;8136;53.172;8.256;2022-08-11T15:41:34;48.20;53.20
16064;DHT22;8136;53.172;8.256;2022-08-11T15:44:23;48.50;52.40
16064;DHT22;8136;53.172;8.256;2022-08-11T15:47:22;48.80;52.30
16064;DHT22;8136;53.172;8.256;2022-08-11T15:49:53;49.20;52.10
16064;DHT22;8136;53.172;8.256;2022-08-11T15:55:01;49.10;51.80
16064;DHT22;8136;53.172;8.256;2022-08-11T15:57:34;48.80;51.40
16064;DHT22;8136;53.172;8.256;2022-08-11T16:00:20;48.60;51.70
16064;DHT22;8136;53.172;8.256;2022-08-11T16:03:06;48.20;51.10
16064;DHT22;8136;53.172;8.256;2022-08-11T16:05:51;47.70;51.50
16064;DHT22;8136;53.172;8.256;2022-08-11T16:08:20;47.10;51.80
16064;DHT22;8136;53.172;8.256;2022-08-11T16:10:49;46.20;52.30
16064;DHT22;8136;53.172;8.256;2022-08-11T16:13:20;45.00;53.70
16064;DHT22;8136;53.172;8.256;2022-08-11T16:16:08;43.20;54.80
16064;DHT22;8136;53.172;8.256;2022-08-11T16:18:55;41.40;56.00
16064;DHT22;8136;53.172;8.256;2022-08-11T16:21:26;39.80;58.20
16064;DHT22;8136;53.172;8.256;2022-08-11T16:23:56;38.30;59.40
16064;DHT22;8136;53.172;8.256;2022-08-11T16:26:24;37.10;60.30
16064;DHT22;8136;53.172;8.256;2022-08-11T16:28:55;36.10;62.30
16064;DHT22;8136;53.172;8.256;2022-08-11T16:31:24;35.50;64.50
16064;DHT22;8136;53.172;8.256;2022-08-11T16:33:52;34.80;65.10
16064;DHT22;8136;53.172;8.256;2022-08-11T16:36:20;34.20;66.70
16064;DHT22;8136;53.172;8.256;2022-08-11T16:39:06;33.60;68.30
16064;DHT22;8136;53.172;8.256;2022-08-11T16:41:35;33.30;70.40
16064;DHT22;8136;53.172;8.256;2022-08-11T16:44:22;32.90;71.60
16064;DHT22;8136;53.172;8.256;2022-08-11T16:47:11;32.60;73.20
16064;DHT22;8136;53.172;8.256;2022-08-11T16:49:42;32.20;74.00
16064;DHT22;8136;53.172;8.256;2022-08-11T16:52:11;32.10;73.90
16064;DHT22;8136;53.172;8.256;2022-08-11T16:54:39;31.90;74.80
16064;DHT22;8136;53.172;8.256;2022-08-11T16:57:11;31.70;74.50
16064;DHT22;8136;53.172;8.256;2022-08-11T17:00:01;31.40;75.20
16064;DHT22;8136;53.172;8.256;2022-08-11T17:02:32;31.20;76.70
16064;DHT22;8136;53.172;8.256;2022-08-11T17:05:21;31.00;76.80
16064;DHT22;8136;53.172;8.256;2022-08-11T17:08:08;30.80;77.60
16064;DHT22;8136;53.172;8.256;2022-08-11T17:11:01;30.70;78.10
16064;DHT22;8136;53.172;8.256;2022-08-11T17:13:48;30.60;79.30
16064;DHT22;8136;53.172;8.256;2022-08-11T17:16:22;30.60;79.90
16064;DHT22;8136;53.172;8.256;2022-08-11T17:18:56;30.40;80.00
16064;DHT22;8136;53.172;8.256;2022-08-11T17:21:25;30.40;80.80
16064;DHT22;8136;53.172;8.256;2022-08-11T17:23:58;30.20;80.30
16064;DHT22;8136;53.172;8.256;2022-08-11T17:26:28;30.10;80.50
16064;DHT22;8136;53.172;8.256;2022-08-11T17:29:19;30.00;80.80
16064;DHT22;8136;53.172;8.256;2022-08-11T17:31:48;29.80;81.20
16064;DHT22;8136;53.172;8.256;2022-08-11T17:34:33;29.80;81.30
16064;DHT22;8136;53.172;8.256;2022-08-11T17:37:19;29.70;82.00
16064;DHT22;8136;53.172;8.256;2022-08-11T17:39:47;29.60;82.60
16064;DHT22;8136;53.172;8.256;2022-08-11T17:42:15;29.50;82.80
16064;DHT22;8136;53.172;8.256;2022-08-11T17:45:01;29.40;83.40
16064;DHT22;8136;53.172;8.256;2022-08-11T17:47:47;29.30;83.80
16064;DHT22;8136;53.172;8.256;2022-08-11T17:50:33;29.20;84.40
16064;DHT22;8136;53.172;8.256;2022-08-11T17:53:02;29.10;84.80
16064;DHT22;8136;53.172;8.256;2022-08-11T17:56:02;29.10;85.80
16064;DHT22;8136;53.172;8.256;2022-08-11T17:58:49;29.00;86.40
16064;DHT22;8136;53.172;8.256;2022-08-11T18:01:36;28.90;87.20
16064;DHT22;8136;53.172;8.256;2022-08-11T18:04:06;28.80;88.20
16064;DHT22;8136;53.172;8.256;2022-08-11T18:06:35;28.70;88.80
16064;DHT22;8136;53.172;8.256;2022-08-11T18:09:05;28.70;90.10
16064;DHT22;8136;53.172;8.256;2022-08-11T18:11:51;28.60;89.40
16064;DHT22;8136;53.172;8.256;2022-08-11T18:14:36;28.50;90.60
16064;DHT22;8136;53.172;8.256;2022-08-11T18:17:20;28.40;90.80
16064;DHT22;8136;53.172;8.256;2022-08-11T18:20:07;28.30;91.20
16064;DHT22;8136;53.172;8.256;2022-08-11T18:22:52;28.20;91.60
16064;DHT22;8136;53.172;8.256;2022-08-11T18:25:41;28.20;91.80
16064;DHT22;8136;53.172;8.256;2022-08-11T18:28:31;28.20;92.00
16064;DHT22;8136;53.172;8.256;2022-08-11T18:31:19;28.30;92.10
16064;DHT22;8136;53.172;8.256;2022-08-11T18:34:07;28.30;92.00